createdAt,value
2023-03-18T00:00:41.688Z,26
2023-03-18T00:01:44.984Z,26
2023-03-18T00:02:48.533Z,26
2023-03-18T00:03:52.344Z,26
2023-03-18T00:04:55.705Z,26
2023-03-18T00:05:58.993Z,26
2023-03-18T00:07:02.492Z,26
2023-03-18T00:08:06.397Z,26
2023-03-18T00:09:09.717Z,26
2023-03-18T00:10:13.247Z,26
2023-03-18T00:11:16.556Z,26
2023-03-18T00:12:19.834Z,26
2023-03-18T00:13:23.399Z,26
2023-03-18T00:14:26.721Z,26
2023-03-18T00:15:30.014Z,26
2023-03-18T00:16:33.376Z,26
2023-03-18T00:17:36.715Z,26
2023-03-18T00:18:40.249Z,26
2023-03-18T00:19:43.541Z,26
2023-03-18T00:20:46.826Z,26
2023-03-18T00:21:50.116Z,26
2023-03-18T00:22:53.414Z,26
2023-03-18T00:23:56.763Z,26
2023-03-18T00:25:00.108Z,27
2023-03-18T00:26:03.409Z,27
2023-03-18T00:27:06.689Z,27
2023-03-18T00:28:10.286Z,27
2023-03-18T00:29:13.645Z,27
2023-03-18T00:30:16.952Z,27
2023-03-18T00:31:20.498Z,27
2023-03-18T00:32:23.841Z,27
2023-03-18T00:33:27.127Z,27
2023-03-18T00:34:30.430Z,27
2023-03-18T00:35:33.887Z,27
2023-03-18T00:36:37.466Z,27
2023-03-18T00:37:40.775Z,27
2023-03-18T00:38:44.071Z,27
2023-03-18T00:39:47.374Z,27
2023-03-18T00:40:50.642Z,27
2023-03-18T00:41:53.911Z,27
2023-03-18T00:42:57.406Z,27
2023-03-18T00:44:00.792Z,27
2023-03-18T00:45:04.360Z,27
2023-03-18T00:46:07.654Z,27
2023-03-18T00:47:10.986Z,27
2023-03-18T00:48:14.393Z,27
2023-03-18T00:49:17.754Z,27
2023-03-18T00:50:21.038Z,27
2023-03-18T00:51:24.393Z,27
2023-03-18T00:52:27.686Z,27
2023-03-18T00:53:30.963Z,27
2023-03-18T00:54:34.507Z,27
2023-03-18T00:55:37.785Z,27
2023-03-18T00:56:41.080Z,27
2023-03-18T00:57:44.387Z,27
2023-03-18T00:58:47.682Z,27
2023-03-18T00:59:51.016Z,27
2023-03-18T01:00:54.524Z,27
2023-03-18T01:01:58.030Z,27
2023-03-18T01:03:01.601Z,27
2023-03-18T01:04:04.925Z,27
2023-03-18T01:05:08.411Z,27
2023-03-18T01:06:11.716Z,27
2023-03-18T01:07:15.010Z,27
2023-03-18T01:08:18.416Z,27
2023-03-18T01:09:21.693Z,27
2023-03-18T01:10:24.979Z,27
2023-03-18T01:11:28.500Z,27
2023-03-18T01:12:31.816Z,27
2023-03-18T01:13:35.098Z,27
2023-03-18T01:14:38.413Z,27
2023-03-18T01:15:41.683Z,27
2023-03-18T01:16:45.147Z,27
2023-03-18T01:17:48.568Z,27
2023-03-18T01:18:51.865Z,27
2023-03-18T01:19:55.423Z,27
2023-03-18T01:20:58.720Z,27
2023-03-18T01:22:02.000Z,27
2023-03-18T01:23:05.415Z,27
2023-03-18T01:24:08.713Z,27
2023-03-18T01:25:12.010Z,28
2023-03-18T01:26:15.426Z,28
2023-03-18T01:27:18.726Z,28
2023-03-18T01:28:22.288Z,28
2023-03-18T01:29:25.594Z,28
2023-03-18T01:30:29.127Z,28
2023-03-18T01:31:32.832Z,28
2023-03-18T01:32:36.588Z,28
2023-03-18T01:33:40.304Z,28
2023-03-18T01:34:43.665Z,28
2023-03-18T01:35:47.120Z,28
2023-03-18T01:36:50.471Z,28
2023-03-18T01:37:53.778Z,28
2023-03-18T01:38:57.092Z,28
2023-03-18T01:40:00.436Z,28
2023-03-18T01:41:03.787Z,28
2023-03-18T01:42:07.338Z,28
2023-03-18T01:43:10.626Z,28
2023-03-18T01:44:13.913Z,28
2023-03-18T01:45:17.435Z,28
2023-03-18T01:46:20.716Z,28
2023-03-18T01:47:24.008Z,28
2023-03-18T01:48:27.441Z,28
2023-03-18T01:49:30.752Z,28
2023-03-18T01:50:34.629Z,28
2023-03-18T01:51:37.904Z,28
2023-03-18T01:52:41.431Z,28
2023-03-18T01:53:44.717Z,28
2023-03-18T01:54:48.010Z,28
2023-03-18T01:55:51.439Z,28
2023-03-18T01:56:54.897Z,28
2023-03-18T01:57:58.581Z,28
2023-03-18T01:59:01.919Z,28
2023-03-18T02:00:05.524Z,28
2023-03-18T02:01:08.871Z,28
2023-03-18T02:02:12.532Z,28
2023-03-18T02:03:15.858Z,28
2023-03-18T02:04:19.419Z,28
2023-03-18T02:05:22.756Z,28
2023-03-18T02:06:26.185Z,28
2023-03-18T02:07:29.503Z,28
2023-03-18T02:08:32.793Z,28
2023-03-18T02:09:36.109Z,28
2023-03-18T02:10:39.442Z,28
2023-03-18T02:11:42.770Z,28
2023-03-18T02:12:46.350Z,28
2023-03-18T02:13:49.617Z,28
2023-03-18T02:14:52.911Z,28
2023-03-18T02:15:56.446Z,28
2023-03-18T02:16:59.797Z,28
2023-03-18T02:18:03.156Z,28
2023-03-18T02:19:06.443Z,28
2023-03-18T02:20:09.739Z,28
2023-03-18T02:21:13.347Z,28
2023-03-18T02:22:16.722Z,28
2023-03-18T02:23:20.010Z,28
2023-03-18T02:24:23.444Z,28
2023-03-18T02:25:26.781Z,28
2023-03-18T02:26:30.113Z,28
2023-03-18T02:27:33.493Z,28
2023-03-18T02:28:36.780Z,28
2023-03-18T02:29:40.343Z,28
2023-03-18T02:30:43.787Z,28
2023-03-18T02:31:47.087Z,28
2023-03-18T02:32:50.573Z,28
2023-03-18T02:33:53.960Z,28
2023-03-18T02:34:57.485Z,28
2023-03-18T02:36:00.902Z,28
2023-03-18T02:37:04.646Z,28
2023-03-18T02:38:07.982Z,28
2023-03-18T02:39:11.461Z,28
2023-03-18T02:40:14.764Z,28
2023-03-18T02:41:18.052Z,28
2023-03-18T02:42:21.450Z,28
2023-03-18T02:43:24.776Z,28
2023-03-18T02:44:28.329Z,28
2023-03-18T02:45:31.613Z,28
2023-03-18T02:46:34.918Z,28
2023-03-18T02:47:38.461Z,28
2023-03-18T02:48:41.794Z,28
2023-03-18T02:49:45.072Z,28
2023-03-18T02:50:48.472Z,28
2023-03-18T02:51:51.789Z,28
2023-03-18T02:52:55.357Z,29
2023-03-18T02:53:58.710Z,29
2023-03-18T02:55:01.989Z,28
2023-03-18T02:56:05.469Z,29
2023-03-18T02:57:08.749Z,28
2023-03-18T02:58:12.021Z,28
2023-03-18T02:59:15.484Z,28
2023-03-18T03:00:18.766Z,28
2023-03-18T03:01:22.442Z,28
2023-03-18T03:02:25.937Z,28
2023-03-18T03:03:29.551Z,29
2023-03-18T03:04:32.924Z,29
2023-03-18T03:05:36.485Z,28
2023-03-18T03:06:39.752Z,29
2023-03-18T03:07:43.067Z,29
2023-03-18T03:08:46.638Z,28
2023-03-18T03:09:50.011Z,29
2023-03-18T03:10:53.469Z,29
2023-03-18T03:11:56.796Z,29
2023-03-18T03:13:00.113Z,29
2023-03-18T03:14:03.491Z,29
2023-03-18T03:15:06.790Z,29
2023-03-18T03:16:10.375Z,29
2023-03-18T03:17:13.765Z,29
2023-03-18T03:18:17.061Z,29
2023-03-18T03:19:20.498Z,29
2023-03-18T03:20:23.827Z,29
2023-03-18T03:21:27.106Z,29
2023-03-18T03:22:30.497Z,29
2023-03-18T03:23:36.876Z,29
2023-03-18T03:24:40.397Z,29
2023-03-18T03:25:43.703Z,29
2023-03-18T03:26:47.003Z,29
2023-03-18T03:27:50.499Z,29
2023-03-18T03:28:53.763Z,29
2023-03-18T03:29:57.048Z,29
2023-03-18T03:31:00.654Z,29
2023-03-18T03:32:04.042Z,29
2023-03-18T03:33:07.667Z,29
2023-03-18T03:34:11.068Z,29
2023-03-18T03:35:14.504Z,29
2023-03-18T03:36:17.850Z,29
2023-03-18T03:37:21.161Z,29
2023-03-18T03:38:24.499Z,29
2023-03-18T03:39:27.837Z,29
2023-03-18T03:40:31.712Z,29
2023-03-18T03:41:35.516Z,29
2023-03-18T03:42:38.812Z,29
2023-03-18T03:43:42.136Z,29
2023-03-18T03:44:45.502Z,29
2023-03-18T03:45:48.778Z,29
2023-03-18T03:46:52.478Z,29
2023-03-18T03:47:55.934Z,29
2023-03-18T03:48:59.225Z,29
2023-03-18T03:50:02.530Z,29
2023-03-18T03:51:05.832Z,29
2023-03-18T03:52:09.126Z,29
2023-03-18T03:53:12.506Z,29
2023-03-18T03:54:15.818Z,29
2023-03-18T03:55:19.121Z,29
2023-03-18T03:56:22.616Z,29
2023-03-18T03:57:25.915Z,29
2023-03-18T03:58:29.203Z,29
2023-03-18T03:59:32.534Z,29
2023-03-18T04:00:35.910Z,29
2023-03-18T04:01:39.541Z,29
2023-03-18T04:02:42.953Z,29
2023-03-18T04:03:46.632Z,29
2023-03-18T04:04:49.995Z,29
2023-03-18T04:05:53.510Z,29
2023-03-18T04:06:56.795Z,29
2023-03-18T04:08:00.080Z,29
2023-03-18T04:09:03.512Z,29
2023-03-18T04:10:06.800Z,29
2023-03-18T04:11:10.105Z,29
2023-03-18T04:12:13.644Z,29
2023-03-18T04:13:16.955Z,29
2023-03-18T04:14:20.246Z,29
2023-03-18T04:15:23.536Z,29
2023-03-18T04:16:26.958Z,29
2023-03-18T04:17:30.518Z,29
2023-03-18T04:18:33.794Z,29
2023-03-18T04:19:37.072Z,29
2023-03-18T04:20:40.620Z,29
2023-03-18T04:21:43.892Z,29
2023-03-18T04:22:47.198Z,29
2023-03-18T04:23:50.530Z,29
2023-03-18T04:24:53.800Z,29
2023-03-18T04:25:57.096Z,29
2023-03-18T04:27:00.532Z,29
2023-03-18T04:28:03.846Z,29
2023-03-18T04:29:07.393Z,29
2023-03-18T04:30:10.703Z,29
2023-03-18T04:31:14.083Z,29
2023-03-18T04:32:17.500Z,29
2023-03-18T04:33:20.792Z,29
2023-03-18T04:34:24.060Z,29
2023-03-18T04:35:27.527Z,29
2023-03-18T04:36:30.789Z,29
2023-03-18T04:37:37.570Z,29
2023-03-18T04:38:40.909Z,29
2023-03-18T04:39:44.375Z,29
2023-03-18T04:40:47.734Z,29
2023-03-18T04:41:51.065Z,29
2023-03-18T04:42:54.561Z,29
2023-03-18T04:43:57.921Z,29
2023-03-18T04:45:01.435Z,29
2023-03-18T04:46:04.734Z,29
2023-03-18T04:47:08.052Z,29
2023-03-18T04:48:11.522Z,29
2023-03-18T04:49:14.802Z,29
2023-03-18T04:50:18.070Z,29
2023-03-18T04:51:21.540Z,29
2023-03-18T04:52:24.819Z,29
2023-03-18T04:53:28.104Z,29
2023-03-18T04:54:31.737Z,29
2023-03-18T04:55:35.273Z,29
2023-03-18T04:56:38.775Z,29
2023-03-18T04:57:42.054Z,29
2023-03-18T04:58:45.576Z,29
2023-03-18T04:59:48.887Z,29
2023-03-18T05:00:52.522Z,29
2023-03-18T05:01:55.965Z,29
2023-03-18T05:02:59.278Z,29
2023-03-18T05:04:02.749Z,29
2023-03-18T05:05:06.260Z,29
2023-03-18T05:06:09.578Z,29
2023-03-18T05:07:12.855Z,29
2023-03-18T05:08:16.129Z,29
2023-03-18T05:09:19.651Z,29
2023-03-18T05:10:22.933Z,29
2023-03-18T05:11:26.210Z,29
2023-03-18T05:12:29.535Z,29
2023-03-18T05:13:32.820Z,29
2023-03-18T05:14:36.177Z,29
2023-03-18T05:15:39.591Z,29
2023-03-18T05:16:43.014Z,29
2023-03-18T05:17:46.562Z,29
2023-03-18T05:18:49.835Z,29
2023-03-18T05:19:53.119Z,29
2023-03-18T05:20:56.548Z,29
2023-03-18T05:22:00.083Z,29
2023-03-18T05:23:03.582Z,29
2023-03-18T05:24:06.855Z,29
2023-03-18T05:25:10.153Z,29
2023-03-18T05:26:13.659Z,29
2023-03-18T05:27:16.979Z,29
2023-03-18T05:28:20.585Z,29
2023-03-18T05:29:23.862Z,29
2023-03-18T05:30:27.192Z,29
2023-03-18T05:31:30.983Z,29
2023-03-18T05:32:34.723Z,29
2023-03-18T05:33:38.117Z,29
2023-03-18T05:34:41.554Z,29
2023-03-18T05:35:44.875Z,29
2023-03-18T05:36:48.232Z,29
2023-03-18T05:37:51.561Z,29
2023-03-18T05:38:54.851Z,29
2023-03-18T05:39:58.126Z,29
2023-03-18T05:41:01.574Z,29
2023-03-18T05:42:04.892Z,29
2023-03-18T05:43:08.187Z,29
2023-03-18T05:44:11.572Z,29
2023-03-18T05:45:14.868Z,29
2023-03-18T05:46:18.329Z,29
2023-03-18T05:47:21.747Z,29
2023-03-18T05:48:25.436Z,29
2023-03-18T05:49:28.827Z,29
2023-03-18T05:50:32.112Z,29
2023-03-18T05:51:35.596Z,30
2023-03-18T05:52:38.928Z,29
2023-03-18T05:53:42.210Z,29
2023-03-18T05:54:45.570Z,29
2023-03-18T05:55:48.864Z,29
2023-03-18T05:56:52.162Z,29
2023-03-18T05:57:55.733Z,29
2023-03-18T05:58:59.069Z,29
2023-03-18T06:00:02.563Z,29
2023-03-18T06:01:05.827Z,29
2023-03-18T06:02:09.180Z,30
2023-03-18T06:03:12.752Z,29
2023-03-18T06:04:16.117Z,29
2023-03-18T06:05:19.633Z,29
2023-03-18T06:06:22.927Z,29
2023-03-18T06:07:26.239Z,29
2023-03-18T06:08:29.579Z,29
2023-03-18T06:09:32.857Z,29
2023-03-18T06:10:36.146Z,29
2023-03-18T06:11:39.573Z,29
2023-03-18T06:12:42.852Z,30
2023-03-18T06:13:46.492Z,29
2023-03-18T06:14:50.212Z,29
2023-03-18T06:15:53.620Z,29
2023-03-18T06:16:57.111Z,29
2023-03-18T06:18:00.602Z,29
2023-03-18T06:19:03.927Z,30
2023-03-18T06:20:07.457Z,29
2023-03-18T06:21:10.753Z,30
2023-03-18T06:22:14.049Z,29
2023-03-18T06:23:17.324Z,30
2023-03-18T06:24:20.600Z,30
2023-03-18T06:25:23.863Z,30
2023-03-18T06:26:27.168Z,30
2023-03-18T06:27:30.602Z,30
2023-03-18T06:28:33.906Z,30
2023-03-18T06:29:37.170Z,30
2023-03-18T06:30:40.751Z,30
2023-03-18T06:31:44.096Z,30
2023-03-18T06:32:47.729Z,30
2023-03-18T06:33:51.177Z,30
2023-03-18T06:34:54.481Z,30
2023-03-18T06:35:57.910Z,30
2023-03-18T06:37:01.615Z,30
2023-03-18T06:38:04.904Z,30
2023-03-18T06:39:08.194Z,30
2023-03-18T06:40:11.611Z,30
2023-03-18T06:41:14.947Z,30
2023-03-18T06:42:18.245Z,30
2023-03-18T06:43:21.670Z,30
2023-03-18T06:44:25.000Z,30
2023-03-18T06:45:28.529Z,30
2023-03-18T06:46:31.954Z,30
2023-03-18T06:47:35.605Z,30
2023-03-18T06:48:38.879Z,30
2023-03-18T06:49:42.173Z,30
2023-03-18T06:50:45.630Z,30
2023-03-18T06:51:48.938Z,30
2023-03-18T06:52:52.478Z,30
2023-03-18T06:53:55.786Z,30
2023-03-18T06:54:59.066Z,30
2023-03-18T06:56:02.336Z,30
2023-03-18T06:57:05.634Z,30
2023-03-18T06:58:08.967Z,30
2023-03-18T06:59:12.264Z,30
2023-03-18T07:00:15.801Z,30
2023-03-18T07:01:19.212Z,30
2023-03-18T07:02:22.839Z,30
2023-03-18T07:03:26.265Z,30
2023-03-18T07:04:29.741Z,30
2023-03-18T07:05:34.010Z,30
2023-03-18T07:06:38.064Z,30
2023-03-18T07:07:41.651Z,30
2023-03-18T07:08:44.965Z,30
2023-03-18T07:09:48.300Z,30
2023-03-18T07:10:51.623Z,30
2023-03-18T07:11:54.908Z,30
2023-03-18T07:12:58.222Z,30
2023-03-18T07:14:01.752Z,30
2023-03-18T07:15:05.055Z,30
2023-03-18T07:16:08.475Z,30
2023-03-18T07:17:11.881Z,30
2023-03-18T07:18:15.204Z,30
2023-03-18T07:19:18.619Z,30
2023-03-18T07:20:21.920Z,30
2023-03-18T07:21:25.514Z,30
2023-03-18T07:22:28.840Z,30
2023-03-18T07:23:32.159Z,30
2023-03-18T07:24:35.625Z,30
2023-03-18T07:25:38.983Z,30
2023-03-18T07:26:42.289Z,30
2023-03-18T07:27:45.678Z,30
2023-03-18T07:28:48.975Z,30
2023-03-18T07:29:52.502Z,30
2023-03-18T07:30:55.880Z,30
2023-03-18T07:31:59.240Z,30
2023-03-18T07:33:02.811Z,30
2023-03-18T07:34:06.183Z,30
2023-03-18T07:35:09.629Z,30
2023-03-18T07:36:12.978Z,30
2023-03-18T07:37:16.568Z,30
2023-03-18T07:38:19.880Z,30
2023-03-18T07:39:23.204Z,30
2023-03-18T07:40:26.648Z,30
2023-03-18T07:41:29.913Z,30
2023-03-18T07:42:33.202Z,30
2023-03-18T07:43:36.642Z,30
2023-03-18T07:44:39.924Z,30
2023-03-18T07:45:43.506Z,30
2023-03-18T07:46:47.015Z,30
2023-03-18T07:47:50.378Z,30
2023-03-18T07:48:53.654Z,30
2023-03-18T07:49:56.928Z,30
2023-03-18T07:51:00.306Z,30
2023-03-18T07:52:03.639Z,30
2023-03-18T07:53:06.956Z,30
2023-03-18T07:54:10.517Z,30
2023-03-18T07:55:13.893Z,30
2023-03-18T07:56:17.157Z,30
2023-03-18T07:57:20.835Z,30
2023-03-18T07:58:24.250Z,30
2023-03-18T07:59:27.659Z,30
2023-03-18T08:00:30.930Z,30
2023-03-18T08:01:34.253Z,30
2023-03-18T08:02:37.745Z,30
2023-03-18T08:03:41.091Z,30
2023-03-18T08:04:44.683Z,30
2023-03-18T08:05:48.021Z,30
2023-03-18T08:06:51.307Z,30
2023-03-18T08:07:54.699Z,30
2023-03-18T08:08:58.060Z,30
2023-03-18T08:10:01.570Z,30
2023-03-18T08:11:04.921Z,30
2023-03-18T08:12:08.195Z,30
2023-03-18T08:13:11.679Z,30
2023-03-18T08:14:14.983Z,30
2023-03-18T08:15:18.320Z,30
2023-03-18T08:16:21.769Z,30
2023-03-18T08:17:25.783Z,30
2023-03-18T08:18:29.076Z,30
2023-03-18T08:19:32.356Z,30
2023-03-18T08:20:35.659Z,30
2023-03-18T08:21:38.934Z,30
2023-03-18T08:22:42.203Z,30
2023-03-18T08:23:45.655Z,30
2023-03-18T08:24:48.982Z,30
2023-03-18T08:25:52.545Z,30
2023-03-18T08:26:55.832Z,30
2023-03-18T08:27:59.117Z,30
2023-03-18T08:29:02.395Z,30
2023-03-18T08:30:05.668Z,30
2023-03-18T08:31:09.058Z,30
2023-03-18T08:32:12.665Z,30
2023-03-18T08:33:15.973Z,30
2023-03-18T08:34:19.256Z,30
2023-03-18T08:35:22.764Z,30
2023-03-18T08:36:26.061Z,30
2023-03-18T08:37:29.347Z,30
2023-03-18T08:38:32.656Z,30
2023-03-18T08:39:35.941Z,30
2023-03-18T08:40:39.257Z,30
2023-03-18T08:41:45.973Z,30
2023-03-18T08:42:49.567Z,30
2023-03-18T08:43:52.871Z,30
2023-03-18T08:44:56.177Z,30
2023-03-18T08:45:59.755Z,30
2023-03-18T08:47:03.133Z,30
2023-03-18T08:48:06.396Z,30
2023-03-18T08:49:09.722Z,30
2023-03-18T08:50:13.044Z,30
2023-03-18T08:51:16.588Z,30
2023-03-18T08:52:19.888Z,30
2023-03-18T08:53:23.175Z,30
2023-03-18T08:54:26.690Z,30
2023-03-18T08:55:30.077Z,30
2023-03-18T08:56:33.381Z,30
2023-03-18T08:57:36.817Z,30
2023-03-18T08:58:40.149Z,30
2023-03-18T08:59:43.717Z,30
2023-03-18T09:00:47.261Z,30
2023-03-18T09:01:50.698Z,30
2023-03-18T09:02:53.975Z,30
2023-03-18T09:03:57.259Z,30
2023-03-18T09:05:00.781Z,30
2023-03-18T09:06:04.105Z,30
2023-03-18T09:07:07.603Z,30
2023-03-18T09:08:10.913Z,30
2023-03-18T09:09:14.291Z,30
2023-03-18T09:10:17.760Z,30
2023-03-18T09:11:21.083Z,30
2023-03-18T09:12:24.477Z,30
2023-03-18T09:13:27.842Z,30
2023-03-18T09:14:31.138Z,30
2023-03-18T09:15:35.507Z,30
2023-03-18T09:16:39.009Z,30
2023-03-18T09:18:00.321Z,30
2023-03-18T09:19:00.769Z,30
2023-03-18T09:20:04.140Z,30
2023-03-18T09:21:07.693Z,30
2023-03-18T09:22:10.951Z,30
2023-03-18T09:23:14.245Z,30
2023-03-18T09:24:17.693Z,30
2023-03-18T09:25:21.007Z,30
2023-03-18T09:26:24.307Z,30
2023-03-18T09:27:27.717Z,30
2023-03-18T09:28:31.060Z,30
2023-03-18T09:29:34.611Z,30
2023-03-18T09:30:38.141Z,30
2023-03-18T09:31:41.701Z,30
2023-03-18T09:32:45.035Z,30
2023-03-18T09:33:48.406Z,30
2023-03-18T09:34:51.745Z,30
2023-03-18T09:35:55.160Z,30
2023-03-18T09:36:58.808Z,30
2023-03-18T09:38:02.106Z,30
2023-03-18T09:39:05.420Z,30
2023-03-18T09:40:08.752Z,30
2023-03-18T09:41:12.040Z,30
2023-03-18T09:42:15.324Z,30
2023-03-18T09:43:18.730Z,30
2023-03-18T09:44:22.053Z,30
2023-03-18T09:45:25.769Z,30
2023-03-18T09:46:29.374Z,30
2023-03-18T09:47:32.865Z,30
2023-03-18T09:48:36.152Z,30
2023-03-18T09:49:39.720Z,30
2023-03-18T09:50:43.075Z,30
2023-03-18T09:51:46.619Z,30
2023-03-18T09:52:49.895Z,30
2023-03-18T09:53:53.178Z,30
2023-03-18T09:54:56.752Z,30
2023-03-18T09:56:00.101Z,30
2023-03-18T09:57:03.390Z,30
2023-03-18T09:58:06.753Z,30
2023-03-18T09:59:10.258Z,30
2023-03-18T10:00:13.829Z,30
2023-03-18T10:01:17.288Z,30
2023-03-18T10:02:20.734Z,30
2023-03-18T10:03:24.033Z,30
2023-03-18T10:04:27.305Z,30
2023-03-18T10:05:31.350Z,30
2023-03-18T10:06:35.177Z,30
2023-03-18T10:07:38.718Z,30
2023-03-18T10:08:42.032Z,30
2023-03-18T10:09:45.324Z,30
2023-03-18T10:10:48.727Z,30
2023-03-18T10:11:52.066Z,30
2023-03-18T10:12:55.594Z,29
2023-03-18T10:13:58.881Z,29
2023-03-18T10:15:02.187Z,28
2023-03-18T10:16:05.571Z,27
2023-03-18T10:17:08.985Z,27
2023-03-18T10:18:12.279Z,27
2023-03-18T10:19:15.724Z,26
2023-03-18T10:20:19.003Z,26
2023-03-18T10:21:22.303Z,26
2023-03-18T10:22:25.904Z,26
2023-03-18T10:23:29.221Z,26
2023-03-18T10:24:32.734Z,26
2023-03-18T10:25:36.021Z,26
2023-03-18T10:26:39.369Z,26
2023-03-18T10:27:42.835Z,26
2023-03-18T10:28:46.147Z,26
2023-03-18T10:29:49.697Z,26
2023-03-18T10:30:53.157Z,25
2023-03-18T10:31:56.763Z,25
2023-03-18T10:33:00.192Z,25
2023-03-18T10:34:03.757Z,25
2023-03-18T10:35:07.062Z,25
2023-03-18T10:36:10.687Z,25
2023-03-18T10:37:14.109Z,25
2023-03-18T10:38:20.356Z,25
2023-03-18T10:39:23.747Z,25
2023-03-18T10:40:27.055Z,24
2023-03-18T10:41:30.355Z,24
2023-03-18T10:42:33.855Z,24
2023-03-18T10:43:37.189Z,24
2023-03-18T10:44:40.712Z,25
2023-03-18T10:45:43.999Z,24
2023-03-18T10:46:47.618Z,24
2023-03-18T10:47:51.132Z,24
2023-03-18T10:48:54.506Z,24
2023-03-18T10:49:57.813Z,24
2023-03-18T10:51:01.103Z,24
2023-03-18T10:52:04.620Z,24
2023-03-18T10:53:07.893Z,24
2023-03-18T10:54:11.224Z,25
2023-03-18T10:55:14.764Z,25
2023-03-18T10:56:18.041Z,25
2023-03-18T10:57:21.332Z,25
2023-03-18T10:58:24.813Z,25
2023-03-18T10:59:28.163Z,24
2023-03-18T11:00:32.065Z,24
2023-03-18T11:01:35.800Z,24
2023-03-18T11:02:39.375Z,24
2023-03-18T11:03:42.834Z,24
2023-03-18T11:04:46.188Z,24
2023-03-18T11:05:49.712Z,24
2023-03-18T11:06:52.998Z,24
2023-03-18T11:07:56.287Z,24
2023-03-18T11:08:59.749Z,24
2023-03-18T11:10:03.151Z,24
2023-03-18T11:11:06.756Z,24
2023-03-18T11:12:10.040Z,24
2023-03-18T11:13:13.337Z,24
2023-03-18T11:14:16.851Z,24
2023-03-18T11:15:20.165Z,24
2023-03-18T11:16:23.634Z,24
2023-03-18T11:17:27.030Z,23
2023-03-18T11:18:30.324Z,23
2023-03-18T11:19:33.783Z,23
2023-03-18T11:20:37.138Z,23
2023-03-18T11:21:40.705Z,23
2023-03-18T11:22:43.982Z,23
2023-03-18T11:23:47.273Z,23
2023-03-18T11:24:50.770Z,23
2023-03-18T11:25:54.079Z,23
2023-03-18T11:26:57.362Z,23
2023-03-18T11:28:00.784Z,23
2023-03-18T11:29:04.121Z,23
2023-03-18T11:30:07.646Z,23
2023-03-18T11:31:11.161Z,24
2023-03-18T11:32:14.501Z,24
2023-03-18T11:33:17.786Z,24
2023-03-18T11:34:21.106Z,24
2023-03-18T11:35:24.558Z,24
2023-03-18T11:36:28.005Z,24
2023-03-18T11:37:31.349Z,24
2023-03-18T11:38:35.077Z,24
2023-03-18T11:39:38.392Z,23
2023-03-18T11:40:41.773Z,23
2023-03-18T11:41:45.078Z,24
2023-03-18T11:42:48.343Z,24
2023-03-18T11:43:51.772Z,24
2023-03-18T11:44:55.067Z,24
2023-03-18T11:45:58.360Z,24
2023-03-18T11:47:01.988Z,24
2023-03-18T11:48:05.373Z,23
2023-03-18T11:49:08.762Z,23
2023-03-18T11:50:12.080Z,24
2023-03-18T11:51:15.403Z,24
2023-03-18T11:52:18.822Z,24
2023-03-18T11:53:22.152Z,24
2023-03-18T11:54:25.688Z,23
2023-03-18T11:55:28.973Z,23
2023-03-18T11:56:32.258Z,23
2023-03-18T11:57:35.821Z,23
2023-03-18T11:58:39.100Z,23
2023-03-18T11:59:42.414Z,23
2023-03-18T12:00:45.829Z,24
2023-03-18T12:01:49.201Z,24
2023-03-18T12:02:52.796Z,24
2023-03-18T12:03:56.104Z,24
2023-03-18T12:04:59.582Z,24
2023-03-18T12:06:02.993Z,24
2023-03-18T12:07:06.335Z,24
2023-03-18T12:08:09.812Z,24
2023-03-18T12:09:13.107Z,24
2023-03-18T12:10:16.391Z,24
2023-03-18T12:11:19.934Z,24
2023-03-18T12:12:23.270Z,24
2023-03-18T12:13:26.791Z,24
2023-03-18T12:14:30.108Z,24
2023-03-18T12:15:34.303Z,24
2023-03-18T12:16:38.152Z,24
2023-03-18T12:17:41.518Z,24
2023-03-18T12:18:44.801Z,24
2023-03-18T12:19:48.097Z,24
2023-03-18T12:20:51.391Z,24
2023-03-18T12:21:54.820Z,24
2023-03-18T12:22:58.163Z,24
2023-03-18T12:24:01.720Z,24
2023-03-18T12:25:05.011Z,24
2023-03-18T12:26:08.296Z,24
2023-03-18T12:27:11.799Z,24
2023-03-18T12:28:15.115Z,24
2023-03-18T12:29:18.393Z,24
2023-03-18T12:30:21.805Z,24
2023-03-18T12:31:25.196Z,24
2023-03-18T12:32:28.946Z,24
2023-03-18T12:33:32.320Z,24
2023-03-18T12:34:35.807Z,24
2023-03-18T12:35:39.219Z,24
2023-03-18T12:36:42.563Z,24
2023-03-18T12:37:45.876Z,24
2023-03-18T12:38:49.227Z,24
2023-03-18T12:39:52.816Z,24
2023-03-18T12:40:56.148Z,24
2023-03-18T12:41:59.431Z,24
2023-03-18T12:43:02.822Z,24
2023-03-18T12:44:06.200Z,24
2023-03-18T12:45:09.480Z,24
2023-03-18T12:46:12.913Z,24
2023-03-18T12:47:16.337Z,24
2023-03-18T12:48:36.951Z,24
2023-03-18T12:49:36.945Z,24
2023-03-18T12:50:40.239Z,24
2023-03-18T12:51:43.729Z,24
2023-03-18T12:52:47.023Z,24
2023-03-18T12:53:50.368Z,24
2023-03-18T12:54:53.920Z,24
2023-03-18T12:55:57.267Z,24
2023-03-18T12:57:00.537Z,24
2023-03-18T12:58:03.865Z,24
2023-03-18T12:59:07.148Z,24
2023-03-18T13:00:10.718Z,24
2023-03-18T13:01:14.292Z,24
2023-03-18T13:02:17.924Z,24
2023-03-18T13:03:21.276Z,24
2023-03-18T13:04:24.574Z,24
2023-03-18T13:05:27.921Z,24
2023-03-18T13:06:31.222Z,24
2023-03-18T13:07:34.767Z,24
2023-03-18T13:08:38.043Z,24
2023-03-18T13:09:41.345Z,24
2023-03-18T13:10:44.874Z,24
2023-03-18T13:11:48.180Z,24
2023-03-18T13:12:51.498Z,24
2023-03-18T13:13:55.273Z,24
2023-03-18T13:14:59.889Z,24
2023-03-18T13:16:03.251Z,24
2023-03-18T13:17:06.661Z,24
2023-03-18T13:18:10.048Z,24
2023-03-18T13:19:13.793Z,24
2023-03-18T13:20:17.152Z,24
2023-03-18T13:21:20.499Z,24
2023-03-18T13:22:23.965Z,24
2023-03-18T13:23:27.240Z,24
2023-03-18T13:24:30.514Z,24
2023-03-18T13:25:34.361Z,24
2023-03-18T13:26:38.356Z,24
2023-03-18T13:27:41.871Z,24
2023-03-18T13:28:45.182Z,24
2023-03-18T13:29:48.481Z,24
2023-03-18T13:30:51.992Z,24
2023-03-18T13:31:55.406Z,24
2023-03-18T13:32:58.989Z,24
2023-03-18T13:34:02.392Z,24
2023-03-18T13:35:05.836Z,24
2023-03-18T13:36:09.275Z,24
2023-03-18T13:37:12.873Z,24
2023-03-18T13:38:16.156Z,24
2023-03-18T13:39:19.441Z,24
2023-03-18T13:40:22.950Z,24
2023-03-18T13:41:26.262Z,24
2023-03-18T13:42:32.713Z,24
2023-03-18T13:43:36.023Z,24
2023-03-18T13:44:42.212Z,24
2023-03-18T13:45:45.506Z,24
2023-03-18T13:46:48.844Z,24
2023-03-18T13:47:52.192Z,24
2023-03-18T13:48:55.716Z,24
2023-03-18T13:49:59.007Z,24
2023-03-18T13:51:02.303Z,24
2023-03-18T13:52:05.560Z,24
2023-03-18T13:53:08.875Z,24
2023-03-18T13:54:12.156Z,24
2023-03-18T13:55:15.468Z,24
2023-03-18T13:56:18.844Z,24
2023-03-18T13:57:22.154Z,24
2023-03-18T13:58:25.721Z,24
2023-03-18T13:59:29.107Z,24
2023-03-18T14:00:32.408Z,24
2023-03-18T14:01:36.008Z,24
2023-03-18T14:02:39.357Z,24
2023-03-18T14:03:43.046Z,24
2023-03-18T14:04:46.764Z,25
2023-03-18T14:05:50.873Z,25
2023-03-18T14:06:54.165Z,25
2023-03-18T14:07:57.482Z,25
2023-03-18T14:09:00.810Z,25
2023-03-18T14:10:18.663Z,25
2023-03-18T14:11:22.227Z,25
2023-03-18T14:12:25.790Z,25
2023-03-18T14:13:29.098Z,25
2023-03-18T14:14:32.437Z,25
2023-03-18T14:15:36.005Z,25
2023-03-18T14:16:39.394Z,24
2023-03-18T14:17:42.841Z,24
2023-03-18T14:18:46.122Z,24
2023-03-18T14:19:49.438Z,24
2023-03-18T14:20:52.968Z,24
2023-03-18T14:21:56.255Z,24
2023-03-18T14:22:59.542Z,24
2023-03-18T14:24:02.875Z,24
2023-03-18T14:25:06.188Z,24
2023-03-18T14:26:09.468Z,24
2023-03-18T14:27:12.866Z,24
2023-03-18T14:28:16.154Z,24
2023-03-18T14:29:19.467Z,24
2023-03-18T14:30:23.198Z,24
2023-03-18T14:31:26.702Z,24
2023-03-18T14:32:30.192Z,24
2023-03-18T14:33:33.557Z,24
2023-03-18T14:34:36.884Z,24
2023-03-18T14:35:40.303Z,24
2023-03-18T14:36:43.922Z,23
2023-03-18T14:37:47.193Z,24
2023-03-18T14:38:50.491Z,24
2023-03-18T14:39:53.902Z,24
2023-03-18T14:40:57.248Z,24
2023-03-18T14:42:00.544Z,23
2023-03-18T14:43:03.880Z,23
2023-03-18T14:44:07.173Z,24
2023-03-18T14:45:10.474Z,23
2023-03-18T14:46:14.216Z,23
2023-03-18T14:47:37.690Z,23
2023-03-18T14:48:35.999Z,23
2023-03-18T14:49:39.270Z,23
2023-03-18T14:50:42.553Z,23
2023-03-18T14:51:45.906Z,23
2023-03-18T14:52:49.180Z,23
2023-03-18T14:53:52.476Z,23
2023-03-18T14:54:55.983Z,23
2023-03-18T14:55:59.295Z,23
2023-03-18T14:57:02.606Z,23
2023-03-18T14:58:05.919Z,23
2023-03-18T14:59:09.227Z,23
2023-03-18T15:00:12.586Z,23
2023-03-18T15:01:16.132Z,23
2023-03-18T15:02:19.490Z,23
2023-03-18T15:03:23.264Z,23
2023-03-18T15:04:26.912Z,23
2023-03-18T15:05:30.329Z,23